Time;durP1;ratioP1;P1;durP2;ratioP2;P2;SDS_P1;SDS_P2;PMS_P1;PMS_P2;Temp;Humidity;BMP_temperature;BMP_pressure;BME280_temperature;BME280_humidity;BME280_pressure;Samples;Min_cycle;Max_cycle;Signal;HPM_P1;HPM_P2
2023/12/19 00:00:48;;;;;;;4.85;4.07;;;4.30;90.90;;;;;;4964441;28;20028;-76
2023/12/19 00:03:14;;;;;;;4.40;4.05;;;4.20;94.60;;;;;;4967633;28;20027;-76
2023/12/19 00:05:41;;;;;;;5.13;4.82;;;4.20;97.20;;;;;;4965759;28;20034;-76
2023/12/19 00:08:07;;;;;;;4.85;4.65;;;4.20;96.80;;;;;;4969592;28;20037;-76
2023/12/19 00:10:34;;;;;;;5.35;4.85;;;4.20;96.60;;;;;;4967565;28;20069;-76
2023/12/19 00:13:00;;;;;;;4.78;4.38;;;4.10;98.10;;;;;;4973207;28;20445;-76
2023/12/19 00:15:26;;;;;;;5.07;4.78;;;4.10;99.60;;;;;;4967081;28;20054;-76
2023/12/19 00:17:51;;;;;;;5.60;5.28;;;4.10;99.10;;;;;;4945467;28;20061;-76
2023/12/19 00:20:17;;;;;;;5.00;4.57;;;4.00;97.60;;;;;;4966866;28;20022;-75
2023/12/19 00:22:43;;;;;;;5.78;5.38;;;4.00;99.90;;;;;;4966738;28;20023;-76
2023/12/19 00:25:09;;;;;;;9.70;6.60;;;4.00;99.90;;;;;;4964930;28;20078;-76
2023/12/19 00:27:35;;;;;;;6.43;5.82;;;4.00;98.00;;;;;;4969703;28;20031;-75
2023/12/19 00:30:00;;;;;;;4.43;4.13;;;4.00;96.30;;;;;;4948768;28;20058;-76
2023/12/19 00:32:26;;;;;;;4.38;4.07;;;4.00;94.30;;;;;;4966877;28;20038;-76
2023/12/19 00:34:52;;;;;;;4.57;4.28;;;4.00;95.70;;;;;;4966553;28;20085;-75
2023/12/19 00:37:18;;;;;;;4.03;3.70;;;3.90;96.50;;;;;;4959470;28;20035;-76
2023/12/19 00:39:44;;;;;;;3.80;3.60;;;3.90;97.30;;;;;;4949692;28;20030;-76
2023/12/19 00:42:10;;;;;;;4.20;3.90;;;4.00;97.90;;;;;;4973551;28;20030;-75
2023/12/19 00:44:38;;;;;;;3.55;3.35;;;4.10;95.00;;;;;;4964894;28;20437;-76
2023/12/19 00:47:04;;;;;;;3.35;3.10;;;4.00;91.90;;;;;;4968997;28;20023;-75
2023/12/19 00:49:30;;;;;;;4.35;3.55;;;4.00;91.70;;;;;;4961691;28;20027;-76
2023/12/19 00:51:56;;;;;;;3.63;3.42;;;3.90;99.90;;;;;;4957574;28;20508;-76
2023/12/19 00:54:22;;;;;;;4.22;3.55;;;4.00;99.90;;;;;;4966088;28;20022;-76
2023/12/19 00:56:48;;;;;;;5.43;4.93;;;4.10;98.30;;;;;;4962398;28;20049;-76
2023/12/19 00:59:13;;;;;;;5.88;5.35;;;4.10;97.00;;;;;;4948786;28;20996;-75
2023/12/19 01:01:39;;;;;;;5.93;5.50;;;4.00;94.70;;;;;;4947443;28;20113;-75
2023/12/19 01:04:05;;;;;;;3.92;3.55;;;4.10;96.50;;;;;;4965949;28;20079;-75
2023/12/19 01:06:31;;;;;;;3.58;3.38;;;4.10;94.40;;;;;;4969268;28;20019;-76
2023/12/19 01:08:57;;;;;;;3.25;3.15;;;4.00;92.70;;;;;;4969684;28;20110;-76
2023/12/19 01:11:23;;;;;;;3.00;2.85;;;4.00;93.50;;;;;;4949752;28;20106;-76
2023/12/19 01:13:50;;;;;;;2.78;2.58;;;4.10;93.00;;;;;;4962547;28;20098;-75
2023/12/19 01:16:16;;;;;;;2.75;2.55;;;4.20;83.00;;;;;;4965191;28;20023;-75
2023/12/19 01:18:42;;;;;;;2.58;2.47;;;4.40;69.10;;;;;;4969143;28;20027;-76
2023/12/19 01:21:08;;;;;;;2.63;2.53;;;4.60;57.90;;;;;;4947707;28;20034;-76
2023/12/19 01:23:33;;;;;;;3.03;2.92;;;4.50;53.20;;;;;;4972425;28;20081;-76
2023/12/19 01:25:59;;;;;;;4.10;3.20;;;4.50;58.00;;;;;;4962915;28;20065;-75
2023/12/19 01:28:25;;;;;;;2.83;2.72;;;4.50;71.00;;;;;;4957219;28;20400;-75
2023/12/19 01:30:51;;;;;;;3.72;3.00;;;4.50;53.10;;;;;;4965548;28;20154;-76
2023/12/19 01:33:17;;;;;;;3.40;3.20;;;4.50;60.10;;;;;;4966384;28;20028;-76
2023/12/19 01:35:42;;;;;;;2.95;2.78;;;4.30;57.60;;;;;;4953277;28;20441;-75
2023/12/19 01:38:09;;;;;;;3.58;3.38;;;4.40;63.40;;;;;;4967408;28;20070;-76
2023/12/19 01:40:35;;;;;;;3.15;2.95;;;4.40;56.10;;;;;;4967691;28;20027;-76
2023/12/19 01:43:01;;;;;;;3.88;3.67;;;4.40;58.50;;;;;;4966924;28;20027;-76
2023/12/19 01:45:28;;;;;;;3.80;3.47;;;4.20;68.60;;;;;;4945290;28;20094;-76
2023/12/19 01:47:55;;;;;;;3.85;3.65;;;4.20;77.50;;;;;;4967859;28;20022;-75
2023/12/19 01:50:21;;;;;;;3.67;3.47;;;4.20;77.60;;;;;;4961994;28;20024;-76
2023/12/19 01:52:54;;;;;;;2.65;2.47;;;4.20;74.50;;;;;;4947291;28;20126;-76
2023/12/19 01:55:22;;;;;;;3.45;3.25;;;4.20;71.30;;;;;;4961105;28;20106;-78
2023/12/19 01:57:48;;;;;;;2.17;2.08;;;4.30;70.50;;;;;;4950946;28;20034;-76
2023/12/19 02:00:14;;;;;;;3.10;2.90;;;4.30;62.50;;;;;;4962003;28;20039;-76
2023/12/19 02:02:41;;;;;;;4.78;2.95;;;4.40;63.90;;;;;;4959629;28;20591;-76
2023/12/19 02:05:07;;;;;;;3.05;2.85;;;4.20;58.00;;;;;;4963016;28;20030;-76
2023/12/19 02:07:33;;;;;;;2.70;2.50;;;4.20;69.60;;;;;;4964645;28;20113;-76
2023/12/19 02:10:00;;;;;;;3.05;2.65;;;4.20;68.40;;;;;;4964742;28;20106;-76
2023/12/19 02:12:26;;;;;;;2.40;2.30;;;4.40;63.90;;;;;;4964494;28;20031;-76
2023/12/19 02:14:53;;;;;;;2.17;2.08;;;4.50;54.40;;;;;;4947416;28;20078;-76
2023/12/19 02:17:21;;;;;;;2.53;2.38;;;4.50;49.60;;;;;;4965177;28;20481;-76
2023/12/19 02:19:51;;;;;;;3.17;2.97;;;4.60;44.30;;;;;;4961509;28;20024;-75
2023/12/19 02:22:17;;;;;;;3.40;3.10;;;4.60;42.60;;;;;;4964533;28;20054;-76
2023/12/19 02:24:44;;;;;;;3.30;3.20;;;4.50;42.50;;;;;;4964470;28;20066;-76
2023/12/19 02:27:13;;;;;;;2.30;2.20;;;4.40;46.20;;;;;;4964819;28;20083;-76
2023/12/19 02:29:38;;;;;;;2.63;2.53;;;4.50;50.10;;;;;;4964012;28;20031;-75
2023/12/19 02:32:04;;;;;;;3.10;2.15;;;4.50;48.70;;;;;;4966216;28;20089;-76
2023/12/19 02:34:30;;;;;;;2.92;2.00;;;4.50;46.30;;;;;;4962760;28;20572;-75
2023/12/19 02:36:56;;;;;;;2.22;2.00;;;4.60;32.50;;;;;;4964794;28;20402;-76
2023/12/19 02:39:22;;;;;;;2.55;2.45;;;4.70;34.20;;;;;;4965223;28;20550;-76
2023/12/19 02:41:48;;;;;;;2.90;2.25;;;4.60;31.40;;;;;;4965060;28;20110;-76
2023/12/19 02:44:14;;;;;;;2.55;2.00;;;4.60;37.90;;;;;;4944170;29;20114;-76
2023/12/19 02:46:39;;;;;;;2.30;2.10;;;4.70;30.50;;;;;;4956466;28;20030;-76
2023/12/19 02:49:05;;;;;;;1.95;1.77;;;4.80;28.00;;;;;;4962403;28;20027;-76
2023/12/19 02:51:31;;;;;;;2.20;2.05;;;4.80;26.50;;;;;;4965671;28;20031;-76
2023/12/19 02:53:58;;;;;;;4.28;1.83;;;4.90;21.40;;;;;;4963374;28;20106;-76
2023/12/19 02:56:24;;;;;;;2.15;2.05;;;4.90;17.90;;;;;;4964557;28;20362;-75
2023/12/19 02:58:50;;;;;;;1.77;1.67;;;5.00;14.60;;;;;;4964281;28;20034;-75
2023/12/19 03:01:16;;;;;;;2.45;2.35;;;5.00;17.80;;;;;;4962915;28;20031;-76
2023/12/19 03:03:45;;;;;;;1.80;1.73;;;5.00;15.40;;;;;;4949049;28;20426;-76
2023/12/19 03:06:13;;;;;;;2.75;1.70;;;5.00;14.20;;;;;;4961463;28;20102;-75
2023/12/19 03:08:43;;;;;;;1.80;1.70;;;5.10;10.80;;;;;;4968128;28;20053;-75
2023/12/19 03:11:09;;;;;;;1.60;1.50;;;5.20;1.00;;;;;;4950587;28;20031;-76
2023/12/19 03:13:34;;;;;;;1.60;1.50;;;5.30;1.00;;;;;;4971541;28;20066;-75
2023/12/19 03:16:00;;;;;;;1.95;1.88;;;5.30;6.10;;;;;;4966482;28;20083;-76
2023/12/19 03:18:25;;;;;;;1.67;1.67;;;5.20;9.90;;;;;;4968158;28;20031;-76
2023/12/19 03:20:51;;;;;;;1.60;1.50;;;5.10;12.00;;;;;;4967433;28;20066;-76
2023/12/19 03:23:21;;;;;;;3.47;2.15;;;5.10;9.30;;;;;;4966528;28;20110;-76
2023/12/19 03:25:47;;;;;;;5.68;1.65;;;5.10;9.50;;;;;;4950582;28;20062;-76
2023/12/19 03:28:12;;;;;;;2.55;2.38;;;5.10;12.30;;;;;;4967226;28;20031;-75
2023/12/19 03:30:38;;;;;;;2.38;2.17;;;5.10;12.40;;;;;;4964600;28;20062;-76
2023/12/19 03:33:04;;;;;;;2.55;2.45;;;5.10;14.20;;;;;;4970440;28;20031;-76
2023/12/19 03:35:30;;;;;;;2.50;2.30;;;4.90;15.10;;;;;;4966300;28;20118;-76
2023/12/19 03:37:56;;;;;;;2.53;2.38;;;4.90;19.90;;;;;;4970655;28;20031;-75
2023/12/19 03:40:22;;;;;;;2.40;2.20;;;4.80;28.70;;;;;;4968238;28;20023;-75
2023/12/19 03:42:48;;;;;;;2.67;2.47;;;4.80;32.40;;;;;;4968081;28;20540;-76
2023/12/19 03:45:14;;;;;;;2.22;2.13;;;4.70;31.20;;;;;;4947034;29;20830;-76
2023/12/19 03:47:40;;;;;;;2.30;2.10;;;4.80;22.30;;;;;;4973644;28;20027;-76
2023/12/19 03:50:07;;;;;;;2.05;1.95;;;4.90;20.90;;;;;;4966288;28;20035;-75
2023/12/19 03:52:32;;;;;;;4.05;1.95;;;4.90;25.50;;;;;;4970413;28;20027;-75
2023/12/19 03:54:59;;;;;;;2.33;2.22;;;4.90;17.30;;;;;;4965611;28;20098;-75
2023/12/19 03:57:26;;;;;;;2.40;2.30;;;4.90;19.20;;;;;;4968411;28;20034;-76
2023/12/19 03:59:51;;;;;;;3.70;2.42;;;4.90;18.80;;;;;;4965173;28;20027;-76
2023/12/19 04:02:17;;;;;;;1.92;1.83;;;5.00;15.10;;;;;;4971137;28;20125;-76
2023/12/19 04:04:43;;;;;;;1.92;1.83;;;5.00;12.30;;;;;;4968684;28;20043;-76
2023/12/19 04:07:09;;;;;;;2.35;2.15;;;5.00;7.30;;;;;;4953784;28;20034;-75
2023/12/19 04:09:34;;;;;;;2.75;1.48;;;5.20;1.00;;;;;;4957801;28;20041;-75
2023/12/19 04:12:03;;;;;;;1.60;1.50;;;5.30;1.00;;;;;;4967267;28;20062;-75
2023/12/19 04:14:30;;;;;;;1.50;1.50;;;5.40;1.00;;;;;;4967397;28;20027;-78
2023/12/19 04:16:56;;;;;;;2.45;1.75;;;5.50;1.00;;;;;;4967228;28;20446;-77
2023/12/19 04:19:22;;;;;;;1.73;1.52;;;5.50;1.00;;;;;;4964410;28;20059;-77
2023/12/19 04:21:48;;;;;;;1.88;1.77;;;5.50;1.00;;;;;;4966513;28;20482;-78
2023/12/19 04:24:14;;;;;;;1.58;1.48;;;5.50;1.00;;;;;;4964954;28;20363;-77
2023/12/19 04:26:42;;;;;;;11.75;1.77;;;5.50;1.00;;;;;;4969117;28;20023;-78
2023/12/19 04:29:08;;;;;;;1.90;1.80;;;5.40;1.00;;;;;;4963362;28;20030;-78
2023/12/19 04:31:33;;;;;;;1.98;1.88;;;5.40;1.00;;;;;;4950213;28;20031;-75
2023/12/19 04:33:59;;;;;;;2.45;2.00;;;5.40;1.00;;;;;;4966999;28;20102;-75
2023/12/19 04:36:25;;;;;;;1.55;1.55;;;5.50;1.00;;;;;;4967612;28;20035;-76
2023/12/19 04:38:52;;;;;;;2.38;1.48;;;5.50;1.00;;;;;;4966911;28;20030;-75
2023/12/19 04:41:17;;;;;;;1.88;1.77;;;5.50;1.00;;;;;;4952202;28;20026;-76
2023/12/19 04:43:43;;;;;;;3.05;1.65;;;5.50;1.00;;;;;;4958145;28;20029;-75
2023/12/19 04:46:09;;;;;;;2.95;1.80;;;5.50;1.00;;;;;;4967500;28;20050;-75
2023/12/19 04:48:35;;;;;;;2.22;2.08;;;5.60;1.00;;;;;;4968110;28;20109;-76
2023/12/19 04:51:01;;;;;;;1.75;1.60;;;5.60;1.00;;;;;;4965826;28;20034;-74
2023/12/19 04:53:27;;;;;;;1.95;1.90;;;5.70;1.00;;;;;;4966716;28;20063;-75
2023/12/19 04:55:53;;;;;;;1.65;1.65;;;5.70;1.00;;;;;;4947691;28;20023;-75
2023/12/19 04:58:19;;;;;;;2.38;1.40;;;5.70;1.00;;;;;;4956231;28;20023;-75
2023/12/19 05:00:45;;;;;;;1.42;1.42;;;5.80;1.00;;;;;;4963618;28;20027;-75
2023/12/19 05:03:10;;;;;;;1.50;1.50;;;5.80;1.00;;;;;;4966328;28;20433;-75
2023/12/19 05:05:36;;;;;;;1.80;1.50;;;5.70;1.00;;;;;;4964512;28;20069;-76
2023/12/19 05:08:02;;;;;;;3.58;1.73;;;5.70;1.00;;;;;;4967410;28;20031;-76
2023/12/19 05:10:28;;;;;;;2.45;1.50;;;5.80;1.00;;;;;;4968431;28;20028;-75
2023/12/19 05:12:53;;;;;;;1.73;1.63;;;5.80;1.00;;;;;;4967742;28;20023;-75
2023/12/19 05:15:19;;;;;;;1.60;1.50;;;5.90;1.00;;;;;;4965066;28;20097;-75
2023/12/19 05:17:45;;;;;;;1.80;1.70;;;6.00;1.00;;;;;;4966521;28;20019;-75
2023/12/19 05:20:11;;;;;;;1.77;1.67;;;6.00;1.00;;;;;;4964108;28;20033;-76
2023/12/19 05:22:36;;;;;;;2.10;1.90;;;5.80;1.00;;;;;;4948431;29;20039;-76
2023/12/19 05:25:02;;;;;;;3.08;1.90;;;5.70;1.00;;;;;;4965387;28;20496;-75
2023/12/19 05:27:28;;;;;;;3.00;1.65;;;5.70;1.00;;;;;;4965895;28;20032;-76
2023/12/19 05:29:53;;;;;;;2.35;1.73;;;5.80;1.00;;;;;;4964127;28;20084;-76
2023/12/19 05:32:19;;;;;;;2.15;1.83;;;5.80;1.00;;;;;;4965248;28;20031;-76
2023/12/19 05:34:45;;;;;;;3.38;1.70;;;5.80;1.00;;;;;;4947532;28;20517;-75
2023/12/19 05:37:11;;;;;;;1.92;1.83;;;5.80;1.00;;;;;;4945382;28;20117;-76
2023/12/19 05:39:37;;;;;;;1.98;1.88;;;5.90;1.00;;;;;;4969450;28;20058;-75
2023/12/19 05:42:03;;;;;;;1.58;1.48;;;5.90;1.00;;;;;;4963265;28;20389;-75
2023/12/19 05:44:28;;;;;;;3.15;1.65;;;6.00;1.00;;;;;;4945680;28;20033;-75
2023/12/19 05:46:56;;;;;;;4.55;1.65;;;6.00;1.00;;;;;;4968681;28;20118;-75
2023/12/19 05:49:22;;;;;;;1.73;1.65;;;6.00;1.00;;;;;;4947197;28;20027;-75
2023/12/19 05:51:47;;;;;;;1.83;1.80;;;5.90;1.00;;;;;;4966680;28;20085;-76
2023/12/19 05:54:13;;;;;;;2.40;2.30;;;5.80;1.00;;;;;;4966728;28;20058;-75
2023/12/19 05:56:39;;;;;;;4.25;2.83;;;5.70;1.00;;;;;;4963104;28;20023;-76
2023/12/19 05:59:04;;;;;;;3.55;2.55;;;5.50;1.00;;;;;;4965425;28;20382;-75
2023/12/19 06:01:30;;;;;;;3.47;2.30;;;5.50;1.00;;;;;;4965111;28;20050;-76
2023/12/19 06:03:56;;;;;;;10.55;2.85;;;5.50;1.00;;;;;;4965255;28;20063;-76
2023/12/19 06:06:21;;;;;;;5.40;1.75;;;5.60;1.00;;;;;;4946944;28;20118;-76
2023/12/19 06:08:47;;;;;;;6.07;3.15;;;5.50;1.00;;;;;;4964105;28;20027;-76
2023/12/19 06:11:13;;;;;;;3.20;2.70;;;5.50;1.00;;;;;;4966312;28;20058;-78
2023/12/19 06:13:39;;;;;;;3.08;2.85;;;5.20;1.00;;;;;;4964930;28;20027;-77
2023/12/19 06:16:05;;;;;;;4.80;2.22;;;5.20;1.00;;;;;;4961661;28;20015;-77
2023/12/19 06:18:32;;;;;;;6.32;2.67;;;5.00;1.00;;;;;;4948498;28;20069;-78
2023/12/19 06:20:59;;;;;;;4.88;2.03;;;5.00;1.00;;;;;;4964988;28;20107;-77
2023/12/19 06:23:26;;;;;;;1.88;1.77;;;5.00;1.00;;;;;;4965030;28;20078;-75
2023/12/19 06:25:52;;;;;;;4.05;2.55;;;5.10;1.00;;;;;;4962971;28;20026;-75
2023/12/19 06:28:17;;;;;;;5.05;2.00;;;5.30;1.00;;;;;;4964237;28;20544;-76
2023/12/19 06:30:43;;;;;;;4.97;1.42;;;5.50;1.00;;;;;;4964101;28;20027;-75
2023/12/19 06:33:09;;;;;;;2.17;1.80;;;5.70;1.00;;;;;;4962625;28;20106;-75
2023/12/19 06:35:39;;;;;;;5.10;2.22;;;5.70;1.00;;;;;;4966176;28;20055;-75
2023/12/19 06:38:05;;;;;;;3.30;2.30;;;5.60;1.00;;;;;;4962664;28;20090;-75
2023/12/19 06:40:31;;;;;;;3.72;2.13;;;5.50;1.00;;;;;;4965307;28;20485;-76
2023/12/19 06:42:56;;;;;;;3.40;2.85;;;5.40;1.00;;;;;;4966154;28;20382;-75
2023/12/19 06:45:22;;;;;;;5.70;3.08;;;5.30;1.00;;;;;;4965417;28;20110;-75
2023/12/19 06:47:48;;;;;;;3.08;2.88;;;5.10;1.00;;;;;;4972314;28;20358;-75
2023/12/19 06:50:14;;;;;;;2.35;2.15;;;5.10;1.00;;;;;;4966369;28;20027;-75
2023/12/19 06:52:39;;;;;;;3.35;1.80;;;5.00;1.00;;;;;;4952835;28;20035;-75
2023/12/19 06:55:05;;;;;;;5.82;2.50;;;5.00;1.00;;;;;;4965402;28;20027;-75
2023/12/19 06:57:31;;;;;;;2.80;2.42;;;5.00;1.00;;;;;;4972229;28;20485;-75
2023/12/19 06:59:57;;;;;;;5.03;2.88;;;5.00;1.00;;;;;;4965454;28;20027;-75
2023/12/19 07:02:22;;;;;;;5.30;2.78;;;5.00;1.00;;;;;;4958218;28;20030;-75
2023/12/19 07:04:48;;;;;;;3.28;2.65;;;5.10;1.00;;;;;;4972142;28;20030;-75
2023/12/19 07:07:14;;;;;;;5.90;2.38;;;5.20;1.00;;;;;;4970172;28;20389;-75
2023/12/19 07:09:39;;;;;;;8.68;2.90;;;5.10;1.00;;;;;;4952677;28;20023;-76
2023/12/19 07:12:05;;;;;;;3.58;3.28;;;5.10;1.00;;;;;;4965506;28;20032;-76
2023/12/19 07:14:31;;;;;;;4.22;2.80;;;5.10;1.00;;;;;;4968162;28;20019;-76
2023/12/19 07:16:57;;;;;;;9.32;3.10;;;5.10;1.00;;;;;;4968935;28;20030;-75
2023/12/19 07:19:22;;;;;;;8.60;4.00;;;5.10;1.00;;;;;;4969139;28;20018;-76
2023/12/19 07:21:49;;;;;;;19.70;5.78;;;5.10;1.00;;;;;;4961401;28;20114;-75
2023/12/19 07:24:15;;;;;;;26.15;6.55;;;5.10;1.00;;;;;;4970515;28;20101;-75
2023/12/19 07:26:41;;;;;;;17.63;7.80;;;5.20;1.00;;;;;;4969405;28;20561;-75
2023/12/19 07:29:10;;;;;;;18.45;6.88;;;5.20;1.00;;;;;;4955749;28;20012;-75
2023/12/19 07:31:36;;;;;;;32.65;7.90;;;5.00;1.00;;;;;;4952524;28;20122;-78
2023/12/19 07:34:04;;;;;;;27.10;8.50;;;4.90;1.00;;;;;;4947480;29;20131;-78
2023/12/19 07:36:30;;;;;;;24.13;8.32;;;4.80;10.50;;;;;;4948092;28;20020;-78
2023/12/19 07:38:56;;;;;;;30.05;8.00;;;4.70;21.30;;;;;;4971736;28;20023;-78
2023/12/19 07:41:23;;;;;;;32.38;9.25;;;4.70;28.00;;;;;;4967944;28;20547;-78
2023/12/19 07:43:49;;;;;;;34.13;11.43;;;4.70;31.20;;;;;;4969580;28;20030;-78
2023/12/19 07:46:29;;;;;;;31.33;10.10;;;4.60;38.30;;;;;;5081236;27;20974;-77
2023/12/19 07:48:55;;;;;;;24.45;10.32;;;4.60;46.60;;;;;;5067542;28;20029;-77
2023/12/19 07:51:24;;;;;;;32.80;10.73;;;4.70;44.60;;;;;;5059349;28;20540;-77
2023/12/19 07:53:50;;;;;;;17.90;9.73;;;4.80;45.00;;;;;;5066629;28;20067;-77
2023/12/19 07:56:16;;;;;;;33.95;11.73;;;4.80;47.50;;;;;;5068344;28;20079;-77
2023/12/19 07:58:42;;;;;;;29.90;11.88;;;4.80;63.60;;;;;;5068794;28;20028;-77
2023/12/19 08:01:12;;;;;;;31.23;11.63;;;4.80;76.00;;;;;;5068592;28;20040;-77
2023/12/19 08:03:38;;;;;;;40.00;13.30;;;4.90;78.00;;;;;;5068599;28;20048;-77
2023/12/19 08:06:05;;;;;;;39.65;13.77;;;4.90;79.00;;;;;;5068349;28;20050;-77
2023/12/19 08:08:32;;;;;;;70.88;18.58;;;4.90;83.10;;;;;;5065045;28;20096;-77
2023/12/19 08:10:57;;;;;;;33.95;16.83;;;4.90;91.60;;;;;;5066571;28;20024;-77
2023/12/19 08:13:24;;;;;;;45.38;17.98;;;5.00;98.40;;;;;;5068349;28;20024;-77
2023/12/19 08:15:50;;;;;;;30.08;15.80;;;5.00;99.40;;;;;;5068407;28;20029;-77
2023/12/19 08:18:16;;;;;;;39.25;15.98;;;5.10;89.30;;;;;;5065704;28;20021;-77
2023/12/19 08:20:42;;;;;;;40.90;15.48;;;5.20;93.40;;;;;;5065268;28;20036;-77
2023/12/19 08:23:09;;;;;;;22.75;14.20;;;5.30;99.90;;;;;;5066880;28;20513;-77
2023/12/19 08:25:34;;;;;;;29.13;15.75;;;5.30;95.20;;;;;;5068079;28;20029;-77
2023/12/19 08:28:01;;;;;;;24.30;16.27;;;5.30;87.50;;;;;;5066358;28;20021;-77
2023/12/19 08:30:27;;;;;;;22.98;15.98;;;5.40;78.70;;;;;;5067778;28;20478;-77
2023/12/19 08:32:57;;;;;;;21.05;14.02;;;5.40;86.70;;;;;;5058552;28;20021;-77
2023/12/19 08:35:23;;;;;;;21.23;14.63;;;5.50;99.90;;;;;;5068005;28;20016;-77
2023/12/19 08:37:49;;;;;;;22.77;12.95;;;5.60;86.90;;;;;;5078520;28;20452;-77
2023/12/19 08:40:15;;;;;;;17.48;10.23;;;5.60;71.00;;;;;;5065750;28;20048;-77
2023/12/19 08:42:41;;;;;;;13.38;7.13;;;5.70;61.30;;;;;;5065192;28;20044;-77
2023/12/19 08:45:15;;;;;;;10.02;6.22;;;5.90;54.50;;;;;;5066197;28;20045;-77
2023/12/19 08:47:41;;;;;;;7.70;5.65;;;5.90;50.90;;;;;;5066238;28;20422;-77
2023/12/19 08:50:09;;;;;;;5.85;5.25;;;6.00;44.50;;;;;;5067720;28;20127;-77
2023/12/19 08:52:37;;;;;;;12.05;5.15;;;6.10;33.30;;;;;;5067618;28;20112;-77
2023/12/19 08:55:06;;;;;;;14.75;5.50;;;6.10;31.10;;;;;;5067331;28;20048;-77
2023/12/19 08:57:38;;;;;;;24.83;5.60;;;6.00;28.90;;;;;;5054905;28;20043;-77
2023/12/19 09:00:04;;;;;;;16.00;5.10;;;6.10;29.30;;;;;;5054408;28;20491;-77
2023/12/19 09:02:29;;;;;;;13.52;5.28;;;6.10;29.10;;;;;;5054104;28;20029;-77
2023/12/19 09:04:55;;;;;;;12.55;4.80;;;6.10;27.30;;;;;;5053832;28;20025;-77
2023/12/19 09:07:21;;;;;;;9.52;5.43;;;6.20;28.60;;;;;;5054124;28;20033;-77
2023/12/19 09:09:47;;;;;;;13.65;5.32;;;6.20;36.10;;;;;;5048555;28;20021;-77
2023/12/19 09:12:13;;;;;;;12.43;6.38;;;6.20;41.40;;;;;;5086313;28;20029;-77
2023/12/19 09:14:38;;;;;;;13.25;5.50;;;6.20;49.00;;;;;;5052809;28;20036;-77
2023/12/19 09:17:04;;;;;;;10.60;6.88;;;6.20;50.90;;;;;;5052664;28;20040;-77
2023/12/19 09:19:31;;;;;;;16.55;6.75;;;6.30;56.10;;;;;;5044642;28;20502;-77
2023/12/19 09:21:59;;;;;;;10.07;6.15;;;6.40;49.30;;;;;;5044549;28;20534;-77
2023/12/19 09:24:30;;;;;;;13.40;6.13;;;6.50;45.20;;;;;;5049839;28;20029;-77
2023/12/19 09:26:56;;;;;;;16.85;6.45;;;6.60;35.30;;;;;;5049853;28;20057;-77
2023/12/19 09:29:23;;;;;;;6.80;5.35;;;6.70;21.00;;;;;;5053776;28;20024;-77
2023/12/19 09:31:49;;;;;;;7.95;5.95;;;6.70;23.20;;;;;;5053517;28;20028;-77
2023/12/19 09:34:15;;;;;;;5.68;5.22;;;6.80;1.00;;;;;;5053618;28;20013;-77
2023/12/19 09:36:40;;;;;;;8.10;6.45;;;6.90;1.00;;;;;;5052079;28;20028;-77
2023/12/19 09:39:06;;;;;;;10.38;6.18;;;6.90;1.00;;;;;;5051950;28;20026;-77
2023/12/19 09:41:32;;;;;;;13.40;6.80;;;6.90;5.70;;;;;;5053216;28;20100;-77
2023/12/19 09:43:58;;;;;;;13.95;7.35;;;7.00;12.10;;;;;;5053576;28;20035;-77
2023/12/19 09:46:25;;;;;;;14.38;7.90;;;7.00;18.90;;;;;;5059784;28;20037;-77
2023/12/19 09:48:51;;;;;;;10.75;8.05;;;7.00;22.60;;;;;;5053293;28;20383;-77
2023/12/19 09:51:26;;;;;;;31.00;8.30;;;7.10;11.90;;;;;;5052406;28;20075;-77
2023/12/19 09:53:54;;;;;;;21.65;8.10;;;7.20;1.00;;;;;;5053121;28;20057;-77
2023/12/19 09:56:20;;;;;;;19.23;8.57;;;7.30;1.00;;;;;;5051834;28;20029;-77
2023/12/19 09:58:49;;;;;;;19.02;7.93;;;7.30;1.00;;;;;;5052440;28;20024;-77
2023/12/19 10:01:18;;;;;;;14.13;8.27;;;7.50;9.70;;;;;;5050756;28;20025;-77
2023/12/19 10:03:44;;;;;;;27.58;9.90;;;7.50;15.90;;;;;;5053118;28;20036;-77
2023/12/19 10:06:10;;;;;;;21.63;10.10;;;7.70;6.50;;;;;;5051532;28;20025;-77
2023/12/19 10:08:42;;;;;;;17.40;9.35;;;7.90;1.00;;;;;;5051956;28;20411;-77
2023/12/19 10:11:08;;;;;;;;;;;8.10;1.00;;;;;;5051784;28;20042;-77
2023/12/19 10:13:35;;;;;;;17.05;12.48;;;8.20;1.00;;;;;;5052937;28;19909;-77
2023/12/19 10:16:11;;;;;;;21.27;14.80;;;8.10;1.00;;;;;;5052522;28;20024;-77
2023/12/19 10:18:38;;;;;;;24.10;17.60;;;8.10;8.30;;;;;;5050867;28;20522;-77
2023/12/19 10:21:05;;;;;;;39.08;19.67;;;8.10;7.00;;;;;;5051806;28;20021;-77
2023/12/19 10:23:34;;;;;;;32.72;23.10;;;8.10;10.80;;;;;;5050031;28;20029;-77
2023/12/19 10:26:01;;;;;;;35.03;23.90;;;8.10;1.00;;;;;;5051101;28;20072;-77
2023/12/19 10:28:26;;;;;;;44.25;26.85;;;8.20;4.80;;;;;;5052350;28;20024;-77
2023/12/19 10:31:15;;;;;;;44.40;31.13;;;8.20;7.00;;;;;;5052657;28;20544;-77
2023/12/19 10:33:46;;;;;;;49.97;31.63;;;8.30;6.20;;;;;;5052544;28;20048;-77
2023/12/19 10:36:29;;;;;;;41.33;26.65;;;8.30;14.70;;;;;;5052314;28;20487;-77
2023/12/19 10:38:56;;;;;;;36.42;26.13;;;8.30;1.00;;;;;;5048739;28;20124;-77
2023/12/19 10:41:26;;;;;;;31.30;20.20;;;8.40;3.50;;;;;;5048527;28;20266;-77
2023/12/19 10:43:56;;;;;;;25.08;15.38;;;8.40;1.00;;;;;;5049586;28;20083;-77
2023/12/19 10:46:25;;;;;;;22.02;13.55;;;8.40;1.00;;;;;;5078107;28;20144;-77
2023/12/19 10:48:53;;;;;;;19.45;13.65;;;8.50;1.00;;;;;;5045410;28;20475;-77
2023/12/19 10:51:41;;;;;;;20.27;12.93;;;8.60;1.00;;;;;;5045012;28;20444;-77
2023/12/19 10:54:16;;;;;;;25.55;12.85;;;8.60;1.00;;;;;;5049157;28;20024;-77
2023/12/19 10:56:54;;;;;;;17.88;12.95;;;8.60;1.00;;;;;;5048502;28;20028;-77
2023/12/19 10:59:33;;;;;;;18.63;12.98;;;8.60;1.00;;;;;;5045173;28;20017;-77
2023/12/19 11:02:32;;;;;;;18.45;11.65;;;8.70;1.00;;;;;;5046125;28;20040;-77
2023/12/19 11:05:12;;;;;;;20.88;12.68;;;8.70;1.00;;;;;;5045752;28;20029;-77
2023/12/19 11:07:41;;;;;;;21.23;13.57;;;8.80;1.00;;;;;;5046833;28;20025;-77
2023/12/19 11:10:09;;;;;;;20.65;12.68;;;8.90;1.00;;;;;;5048125;28;20021;-77
2023/12/19 11:12:37;;;;;;;20.50;13.77;;;9.00;99.90;;;;;;5047252;28;20076;-77
2023/12/19 11:15:04;;;;;;;25.25;13.95;;;9.00;1.00;;;;;;5048321;28;20029;-77
2023/12/19 11:17:42;;;;;;;26.08;14.43;;;9.10;99.90;;;;;;5045729;28;20021;-77
2023/12/19 11:20:24;;;;;;;18.48;13.63;;;9.10;99.90;;;;;;5041528;28;20388;-77
2023/12/19 11:23:20;;;;;;;26.23;14.48;;;9.10;99.90;;;;;;5042914;28;20021;-77
2023/12/19 11:25:59;;;;;;;27.75;15.52;;;9.20;99.90;;;;;;5048420;28;20032;-76
2023/12/19 11:28:26;;;;;;;28.25;16.45;;;9.20;99.90;;;;;;5045943;28;20033;-77
2023/12/19 11:30:52;;;;;;;25.63;16.38;;;9.30;99.90;;;;;;5048015;28;20063;-77
2023/12/19 11:33:31;;;;;;;26.20;17.42;;;9.30;99.90;;;;;;5048696;28;20078;-77
2023/12/19 11:36:11;;;;;;;46.30;19.13;;;9.40;99.90;;;;;;5048566;28;20025;-77
2023/12/19 11:38:36;;;;;;;37.67;17.70;;;9.40;99.90;;;;;;5050136;28;20487;-77
2023/12/19 11:41:02;;;;;;;34.28;18.38;;;9.40;99.90;;;;;;5051176;28;20033;-77
2023/12/19 11:43:28;;;;;;;29.88;17.45;;;9.50;99.90;;;;;;5051395;28;20025;-77
2023/12/19 11:45:55;;;;;;;25.65;17.45;;;9.70;99.90;;;;;;5051032;28;20049;-77
2023/12/19 11:48:40;;;;;;;26.55;16.80;;;9.60;99.90;;;;;;5051447;28;20044;-77
2023/12/19 11:51:11;;;;;;;27.90;16.90;;;9.70;99.90;;;;;;5048892;28;20483;-77
2023/12/19 11:53:41;;;;;;;26.85;17.27;;;9.80;99.90;;;;;;5049773;28;20033;-77
2023/12/19 11:56:10;;;;;;;43.20;18.35;;;9.80;1.00;;;;;;5058043;28;20437;-77
2023/12/19 11:58:47;;;;;;;35.35;17.23;;;9.90;99.90;;;;;;5051163;28;20032;-77
2023/12/19 12:01:12;;;;;;;26.35;16.38;;;10.00;99.90;;;;;;5045784;28;20082;-76
2023/12/19 12:03:38;;;;;;;29.17;17.20;;;10.20;99.90;;;;;;5047614;28;20033;-77
2023/12/19 12:06:04;;;;;;;23.85;15.93;;;10.30;99.90;;;;;;5047621;28;20029;-77
2023/12/19 12:08:30;;;;;;;23.95;15.07;;;10.30;99.90;;;;;;5046224;28;20132;-77
2023/12/19 12:11:05;;;;;;;24.13;15.55;;;10.30;99.90;;;;;;5043922;28;20589;-77
2023/12/19 12:13:33;;;;;;;26.02;16.58;;;10.40;99.90;;;;;;5046012;28;20025;-77
2023/12/19 12:16:00;;;;;;;24.10;16.77;;;10.40;99.90;;;;;;5047487;28;20045;-77
2023/12/19 12:18:30;;;;;;;35.40;16.85;;;10.40;99.90;;;;;;5048338;28;20100;-77
2023/12/19 12:21:08;;;;;;;27.40;18.63;;;10.50;99.90;;;;;;5046590;28;20044;-77
2023/12/19 12:23:35;;;;;;;43.67;23.92;;;10.50;99.90;;;;;;5046770;28;20744;-77
2023/12/19 12:26:00;;;;;;;39.85;22.75;;;10.50;99.90;;;;;;5046762;28;20029;-77
2023/12/19 12:28:26;;;;;;;28.42;18.95;;;10.50;99.90;;;;;;5048315;28;20036;-77
2023/12/19 12:30:54;;;;;;;34.53;16.50;;;10.50;99.90;;;;;;5043442;28;20139;-76
2023/12/19 12:33:20;;;;;;;23.63;15.65;;;10.70;99.90;;;;;;5048752;28;20017;-78
2023/12/19 12:35:46;;;;;;;28.10;16.23;;;10.60;99.90;;;;;;5045553;28;20037;-77
2023/12/19 12:38:17;;;;;;;31.20;15.68;;;10.60;99.90;;;;;;5051126;28;20517;-77
2023/12/19 12:41:00;;;;;;;28.17;17.52;;;10.60;99.90;;;;;;5050369;28;20032;-77
2023/12/19 12:43:39;;;;;;;29.77;15.30;;;10.60;99.90;;;;;;5042144;28;20078;-76
2023/12/19 12:46:07;;;;;;;35.05;17.63;;;10.60;99.90;;;;;;5045504;28;20462;-77
2023/12/19 12:48:33;;;;;;;30.77;17.73;;;10.70;99.90;;;;;;5068501;28;20356;-77
2023/12/19 12:51:00;;;;;;;38.38;18.40;;;10.70;99.90;;;;;;5054448;28;20017;-77
2023/12/19 12:53:25;;;;;;;36.55;18.73;;;10.90;99.90;;;;;;5050399;28;20021;-77